Hyattsville, MD (20782)

12:06 PM EST on January 31, 2015 (GMT -0500)
College Heights Estates | Change Station
CLOSE
Current Station
Personal Weather Station
Location: Hyattsville, MD
Elevation: 121 ft
Nearby Weather Stations

Elev 121 ft 38.98 °N, 76.95 °W | Updated 1 minute ago

Clear
Clear
28.4 °F
Feels Like 28 °F
N
1.0
Wind Variable Wind from SW
Gusts 6.0 mph

Today
High -- | Low -- °F
--% Chance of Precip.
Yesterday
High -- | Low -- °F
Precip. -- in
7:15 AM 5:27 PM
Waxing Gibbous, 90% visible
Pressure 30.33 in
Visibility 10.0 miles
Clouds Clear
Windchill 28 °F
Dew Point 8 °F
Humidity 41%
Rainfall 0.00 in
Snow Depth Not available.
UV 4 out of 12
Pollen 1.70 out of 12
Air Quality Not available.
Flu Activity Not available.
METAR KCGS 311650Z AUTO 29009G15KT 260V320 10SM CLR M02/M16 A3033 RMK AO1

More Conditions Fewer Conditions

Pressure 30.33 in
Visibility 10.0 miles
Clouds Clear
Windchill 28 °F
Dew Point 8 °F
Humidity 41%
Rainfall 0.00 in
Snow Depth Not available.
UV 4 out of 12
Pollen 1.70 out of 12
Air Quality Not available.
Flu Activity Not available.
METAR KCGS 311650Z AUTO 29009G15KT 260V320 10SM CLR M02/M16 A3033 RMK AO1

More Conditions Fewer Conditions

10-Day Weather Forecast

Almanac

Astronomy

Jan. 31, 2015 Rise Set
Actual Time
Civil Twilight
Nautical Twilight
Astronomical Twilight
Moon
Length of Visible Light
Length of Day
Tomorrow will be .
, % of the Moon is Illuminated

Today's Extremes

State Highs State Lows

Community

WunderPhotos

Upload Photos

1,792,117 photos uploaded!

WunderBlogs® & News

Nearby

Air Quality

  Air Quality AQ Index Pollutant
Not available.

Snow Depth

Station Depth Elevation

Earthquake Activity

City Distance Mag. Time & Date
Minimum magnitude displayed is 2.5.

Coastal Water Temperatures

Place Temperature

Nearby Weather Stations